Paraiso, Brazil
Current Conditions -  °F | °C
As of 11:00 PM on Saturday 25 Oct 2014 (Local Time) from SBCH Reporting Station
Few Clouds Few Clouds  
Wind Chill: 72°   Ceiling: Unl
Heat Index: 72°   Visibility: 6mi
Dew Point: 63°   Wind: 10mph
Humidity: 73%   Direction: 50°NE
Pressure: 29.94"   Gusts: NA
Location:  26.6°S, 53.65°W
Report Text: SBCH 260100Z 05009KT 9999 FEW025 22/17 Q1014
Loading
Personal Weather Stations






























Interactive Weather Map
Tropical Storm Tracking
New forecast layout! Learn more

10-Day Weather Forecast

Advertisements
Track Severe Weather on mobile